createdAt,value
2022-10-11T00:01:12.589Z,70.50
2022-10-11T00:03:42.265Z,70.50
2022-10-11T00:06:11.881Z,70.40
2022-10-11T00:08:41.506Z,70.23
2022-10-11T00:11:11.737Z,70.10
2022-10-11T00:13:41.473Z,70.01
2022-10-11T00:16:13.008Z,70.12
2022-10-11T00:18:43.250Z,70.14
2022-10-11T00:21:14.418Z,70.25
2022-10-11T00:23:44.407Z,70.25
2022-10-11T00:26:14.051Z,70.33
2022-10-11T00:28:44.020Z,70.32
2022-10-11T00:31:14.968Z,70.34
2022-10-11T00:33:44.517Z,70.42
2022-10-11T00:36:17.002Z,70.48
2022-10-11T00:38:46.885Z,70.56
2022-10-11T00:41:16.695Z,70.58
2022-10-11T00:43:46.436Z,70.62
2022-10-11T00:46:32.721Z,70.63
2022-10-11T00:49:06.058Z,70.70
2022-10-11T00:51:49.150Z,70.76
2022-10-11T00:54:20.288Z,70.95
2022-10-11T00:56:52.161Z,70.93
2022-10-11T00:59:23.710Z,71.07
2022-10-11T01:01:55.351Z,71.13
2022-10-11T01:04:25.065Z,71.13
2022-10-11T01:06:54.860Z,71.08
2022-10-11T01:09:24.762Z,71.14
2022-10-11T01:11:55.314Z,71.07
2022-10-11T01:14:50.741Z,71.16
2022-10-11T01:17:23.727Z,71.26
2022-10-11T01:20:11.806Z,71.35
2022-10-11T01:22:55.710Z,71.30
2022-10-11T01:25:28.880Z,71.36
2022-10-11T01:28:06.388Z,71.46
2022-10-11T01:30:37.508Z,71.49
2022-10-11T01:33:14.607Z,71.38
2022-10-11T01:35:47.303Z,71.46
2022-10-11T01:38:18.667Z,71.62
2022-10-11T01:40:50.203Z,71.52
2022-10-11T01:43:22.041Z,71.51
2022-10-11T01:45:53.742Z,71.49
2022-10-11T01:48:23.442Z,71.56
2022-10-11T01:50:53.872Z,71.55
2022-10-11T01:53:32.510Z,71.50
2022-10-11T01:56:07.899Z,71.30
2022-10-11T01:58:44.945Z,71.43
2022-10-11T02:01:18.799Z,71.40
2022-10-11T02:03:50.677Z,71.65
2022-10-11T02:06:24.965Z,71.50
2022-10-11T02:08:57.135Z,71.62
2022-10-11T02:11:29.092Z,71.91
2022-10-11T02:14:01.318Z,71.87
2022-10-11T02:16:35.165Z,71.57
2022-10-11T02:19:06.448Z,71.40
2022-10-11T02:21:37.668Z,71.22
2022-10-11T02:24:09.803Z,71.13
2022-10-11T02:26:40.901Z,70.76
2022-10-11T02:29:11.558Z,70.40
2022-10-11T02:31:42.396Z,70.23
2022-10-11T02:34:13.405Z,69.95
2022-10-11T02:36:48.734Z,69.77
2022-10-11T02:39:21.185Z,69.63
2022-10-11T02:41:52.840Z,69.58
2022-10-11T02:44:26.154Z,69.50
2022-10-11T02:46:56.245Z,69.53
2022-10-11T02:49:25.949Z,69.70
2022-10-11T02:51:57.808Z,69.56
2022-10-11T02:54:28.049Z,69.60
2022-10-11T02:56:57.735Z,69.57
2022-10-11T02:59:27.372Z,69.65
2022-10-11T03:01:56.989Z,69.64
2022-10-11T03:04:26.668Z,69.60
2022-10-11T03:06:56.277Z,69.53
2022-10-11T03:09:25.877Z,69.55
2022-10-11T03:11:55.533Z,69.56
2022-10-11T03:14:25.226Z,69.68
2022-10-11T03:16:54.839Z,69.61
2022-10-11T03:19:24.545Z,69.68
2022-10-11T03:21:54.177Z,69.70
2022-10-11T03:24:23.885Z,69.67
2022-10-11T03:26:53.492Z,69.69
2022-10-11T03:29:23.173Z,69.76
2022-10-11T03:31:52.725Z,69.80
2022-10-11T03:34:22.395Z,69.77
2022-10-11T03:36:52.227Z,69.71
2022-10-11T03:39:22.188Z,69.58
2022-10-11T03:41:51.759Z,69.66
2022-10-11T03:44:21.336Z,69.56
2022-10-11T03:46:50.922Z,69.47
2022-10-11T03:49:20.693Z,69.43
2022-10-11T03:51:50.333Z,69.44
2022-10-11T03:54:19.962Z,69.31
2022-10-11T03:56:49.577Z,69.31
2022-10-11T03:59:19.150Z,69.29
2022-10-11T04:01:48.749Z,69.22
2022-10-11T04:04:18.332Z,69.38
2022-10-11T04:06:47.911Z,69.33
2022-10-11T04:09:17.517Z,69.26
2022-10-11T04:11:47.151Z,69.30
2022-10-11T04:14:17.364Z,69.38
2022-10-11T04:16:46.956Z,69.23
2022-10-11T04:19:16.776Z,68.97
2022-10-11T04:21:46.423Z,68.89
2022-10-11T04:24:16.029Z,68.80
2022-10-11T04:26:45.642Z,68.75
2022-10-11T04:29:15.485Z,68.56
2022-10-11T04:31:45.365Z,68.43
2022-10-11T04:34:15.235Z,68.30
2022-10-11T04:36:49.639Z,68.16
2022-10-11T04:39:19.640Z,68.02
2022-10-11T04:41:49.199Z,67.87
2022-10-11T04:44:18.799Z,67.85
2022-10-11T04:46:48.396Z,67.80
2022-10-11T04:49:18.020Z,67.90
2022-10-11T04:51:47.673Z,67.81
2022-10-11T04:54:17.190Z,67.72
2022-10-11T04:56:46.793Z,67.75
2022-10-11T04:59:16.376Z,67.74
2022-10-11T05:01:46.134Z,67.77
2022-10-11T05:04:15.735Z,67.70
2022-10-11T05:06:45.420Z,67.72
2022-10-11T05:09:17.989Z,67.77
2022-10-11T05:11:47.594Z,67.73
2022-10-11T05:14:17.170Z,67.70
2022-10-11T05:16:46.782Z,67.92
2022-10-11T05:19:16.392Z,67.88
2022-10-11T05:21:46.060Z,67.87
2022-10-11T05:24:17.062Z,67.88
2022-10-11T05:26:46.678Z,67.98
2022-10-11T05:29:16.296Z,67.92
2022-10-11T05:31:45.952Z,68.02
2022-10-11T05:34:15.754Z,67.97
2022-10-11T05:36:45.576Z,68.00
2022-10-11T05:39:15.411Z,67.92
2022-10-11T05:41:45.045Z,67.83
2022-10-11T05:44:14.739Z,67.79
2022-10-11T05:46:47.410Z,67.86
2022-10-11T05:49:17.125Z,67.74
2022-10-11T05:51:47.248Z,67.71
2022-10-11T05:54:17.270Z,67.63
2022-10-11T05:56:47.196Z,67.47
2022-10-11T05:59:17.040Z,67.51
2022-10-11T06:01:46.765Z,67.37
2022-10-11T06:04:16.880Z,67.42
2022-10-11T06:06:46.615Z,67.36
2022-10-11T06:09:16.622Z,67.27
2022-10-11T06:11:46.290Z,67.24
2022-10-11T06:14:16.041Z,67.29
2022-10-11T06:16:45.679Z,67.17
2022-10-11T06:19:15.309Z,67.16
2022-10-11T06:21:45.956Z,67.09
2022-10-11T06:24:15.967Z,67.13
2022-10-11T06:26:45.954Z,67.11
2022-10-11T06:29:15.601Z,67.10
2022-10-11T06:31:45.654Z,67.09
2022-10-11T06:34:15.578Z,67.18
2022-10-11T06:36:45.243Z,67.07
2022-10-11T06:39:16.115Z,67.08
2022-10-11T06:41:48.803Z,67.00
2022-10-11T06:44:18.338Z,66.91
2022-10-11T06:46:47.883Z,66.84
2022-10-11T06:49:23.149Z,66.81
2022-10-11T06:51:53.417Z,66.85
2022-10-11T06:54:25.629Z,66.81
2022-10-11T06:56:55.261Z,66.83
2022-10-11T06:59:24.862Z,66.88
2022-10-11T07:01:54.444Z,66.80
2022-10-11T07:04:24.030Z,66.99
2022-10-11T07:06:53.623Z,67.03
2022-10-11T07:09:23.281Z,66.92
2022-10-11T07:11:52.877Z,66.85
2022-10-11T07:14:22.491Z,66.82
2022-10-11T07:16:52.211Z,66.68
2022-10-11T07:19:22.322Z,66.59
2022-10-11T07:21:51.939Z,66.41
2022-10-11T07:24:21.863Z,66.19
2022-10-11T07:26:51.536Z,65.98
2022-10-11T07:29:21.389Z,65.91
2022-10-11T07:31:51.084Z,65.90
2022-10-11T07:34:23.054Z,65.82
2022-10-11T07:36:52.750Z,65.71
2022-10-11T07:39:22.786Z,65.72
2022-10-11T07:41:52.408Z,65.77
2022-10-11T07:44:22.482Z,65.67
2022-10-11T07:46:53.797Z,65.62
2022-10-11T07:49:23.877Z,65.62
2022-10-11T07:51:53.484Z,65.59
2022-10-11T07:54:23.334Z,65.58
2022-10-11T07:56:53.167Z,65.51
2022-10-11T07:59:22.838Z,65.46
2022-10-11T08:01:52.594Z,65.39
2022-10-11T08:04:22.656Z,65.38
2022-10-11T08:06:53.428Z,65.25
2022-10-11T08:09:23.305Z,65.17
2022-10-11T08:11:53.035Z,65.18
2022-10-11T08:14:22.699Z,65.00
2022-10-11T08:16:52.283Z,64.92
2022-10-11T08:19:22.531Z,64.95
2022-10-11T08:21:52.657Z,64.91
2022-10-11T08:24:22.389Z,65.03
2022-10-11T08:26:52.686Z,65.07
2022-10-11T08:29:24.935Z,65.01
2022-10-11T08:31:54.607Z,64.96
2022-10-11T08:34:24.241Z,65.03
2022-10-11T08:36:54.028Z,64.83
2022-10-11T08:39:23.691Z,64.83
2022-10-11T08:41:55.515Z,64.77
2022-10-11T08:45:05.493Z,64.57
2022-10-11T08:47:30.615Z,64.47
2022-10-11T08:50:01.070Z,64.22
2022-10-11T08:52:35.084Z,64.06
2022-10-11T08:55:06.394Z,63.85
2022-10-11T08:57:38.727Z,63.64
2022-10-11T09:00:12.715Z,63.42
2022-10-11T09:03:08.630Z,63.26
2022-10-11T09:05:47.628Z,62.93
2022-10-11T09:08:22.804Z,62.85
2022-10-11T09:11:07.671Z,62.71
2022-10-11T09:13:46.092Z,62.74
2022-10-11T09:16:22.273Z,62.65
2022-10-11T09:19:00.577Z,62.48
2022-10-11T09:21:35.215Z,62.37
2022-10-11T09:24:14.871Z,62.07
2022-10-11T09:26:49.172Z,61.79
2022-10-11T09:29:23.090Z,61.67
2022-10-11T09:31:54.870Z,61.54
2022-10-11T09:34:26.495Z,61.44
2022-10-11T09:37:00.242Z,61.11
2022-10-11T09:39:31.875Z,60.79
2022-10-11T09:42:03.033Z,60.52
2022-10-11T09:44:35.777Z,60.27
2022-10-11T09:47:06.264Z,59.74
2022-10-11T09:49:37.808Z,59.21
2022-10-11T09:52:08.714Z,58.81
2022-10-11T09:54:42.688Z,58.13
2022-10-11T09:57:21.656Z,57.35
2022-10-11T10:00:03.680Z,56.31
2022-10-11T10:02:45.373Z,55.46
2022-10-11T10:05:22.250Z,55.01
2022-10-11T10:08:08.360Z,54.11
2022-10-11T10:10:44.093Z,52.95
2022-10-11T10:13:25.189Z,52.27
2022-10-11T10:15:56.290Z,50.84
2022-10-11T10:18:28.737Z,49.73
2022-10-11T10:21:01.793Z,48.53
2022-10-11T10:23:33.532Z,47.01
2022-10-11T10:26:26.186Z,46.02
2022-10-11T10:29:20.361Z,44.76
2022-10-11T10:32:14.739Z,44.27
2022-10-11T10:35:04.189Z,44.23
2022-10-11T10:37:36.587Z,44.04
2022-10-11T10:40:08.959Z,44.47
2022-10-11T10:42:39.198Z,44.97
2022-10-11T10:45:20.913Z,44.90
2022-10-11T10:48:05.428Z,44.05
2022-10-11T10:50:43.500Z,43.88
2022-10-11T10:53:22.150Z,43.90
2022-10-11T10:55:54.215Z,43.85
2022-10-11T10:58:42.711Z,43.43
2022-10-11T11:01:15.092Z,42.86
2022-10-11T11:03:48.481Z,43.00
2022-10-11T11:06:22.137Z,42.70
2022-10-11T11:08:56.963Z,41.32
2022-10-11T11:11:44.643Z,40.05
2022-10-11T11:14:20.154Z,38.88
2022-10-11T11:16:57.741Z,37.00
2022-10-11T11:19:40.234Z,36.00
2022-10-11T11:22:24.123Z,34.02
2022-10-11T11:25:01.774Z,31.66
2022-10-11T11:27:41.898Z,30.11
2022-10-11T11:30:26.227Z,27.89
2022-10-11T11:33:02.902Z,26.09
2022-10-11T11:35:37.027Z,24.73
2022-10-11T11:38:12.852Z,24.28
2022-10-11T11:40:45.195Z,23.22
2022-10-11T11:43:22.632Z,23.33
2022-10-11T11:45:57.972Z,23.42
2022-10-11T11:48:28.383Z,23.88
2022-10-11T11:51:02.519Z,24.63
2022-10-11T11:53:43.107Z,25.89
2022-10-11T11:56:28.094Z,26.36
2022-10-11T11:59:05.715Z,26.78
2022-10-11T12:01:39.041Z,28.32
2022-10-11T12:04:17.576Z,29.38
2022-10-11T12:07:15.350Z,30.47
2022-10-11T12:09:50.873Z,31.51
2022-10-11T12:12:34.614Z,32.63
2022-10-11T12:15:19.479Z,33.20
2022-10-11T12:18:15.947Z,34.49
2022-10-11T12:20:46.416Z,35.55
2022-10-11T12:23:33.650Z,35.86
2022-10-11T12:26:32.230Z,36.58
2022-10-11T12:29:06.868Z,37.03
2022-10-11T12:31:40.312Z,37.41
2022-10-11T12:34:34.609Z,37.94
2022-10-11T12:37:34.139Z,38.53
2022-10-11T12:40:03.863Z,39.15
2022-10-11T12:42:34.794Z,39.57
2022-10-11T12:45:21.872Z,39.55
2022-10-11T12:47:55.734Z,39.17
2022-10-11T12:50:30.290Z,38.70
2022-10-11T12:53:04.739Z,38.35
2022-10-11T12:55:46.204Z,37.75
2022-10-11T12:58:27.230Z,35.31
2022-10-11T13:01:11.737Z,35.26
2022-10-11T13:03:42.988Z,34.71
2022-10-11T13:06:15.758Z,34.88
2022-10-11T13:08:47.671Z,35.80
2022-10-11T13:11:20.654Z,36.24
2022-10-11T13:13:55.659Z,36.87
2022-10-11T13:16:28.525Z,37.26
2022-10-11T13:18:59.362Z,37.00
2022-10-11T13:21:31.267Z,36.81
2022-10-11T13:24:02.366Z,37.28
2022-10-11T13:26:32.843Z,37.59
2022-10-11T13:29:02.594Z,38.06
2022-10-11T13:31:33.157Z,38.24
2022-10-11T13:34:02.892Z,38.69
2022-10-11T13:36:33.050Z,39.26
2022-10-11T13:39:03.086Z,39.53
2022-10-11T13:41:35.090Z,39.82
2022-10-11T13:44:05.829Z,39.90
2022-10-11T13:46:38.095Z,39.85
2022-10-11T13:49:26.060Z,39.84
2022-10-11T13:52:00.634Z,40.03
2022-10-11T13:54:48.956Z,40.36
2022-10-11T13:57:18.568Z,40.71
2022-10-11T13:59:48.373Z,41.09
2022-10-11T14:02:20.012Z,41.00
2022-10-11T14:04:50.103Z,41.24
2022-10-11T14:07:25.432Z,41.53
2022-10-11T14:09:56.160Z,41.68
2022-10-11T14:12:33.699Z,41.68
2022-10-11T14:15:04.320Z,41.89
2022-10-11T14:17:44.292Z,42.01
2022-10-11T14:20:21.689Z,42.34
2022-10-11T14:22:55.662Z,42.59
2022-10-11T14:25:25.632Z,42.89
2022-10-11T14:27:55.795Z,43.09
2022-10-11T14:30:27.795Z,43.16
2022-10-11T14:32:59.265Z,42.87
2022-10-11T14:35:31.983Z,42.64
2022-10-11T14:38:01.786Z,42.55
2022-10-11T14:40:32.226Z,42.42
2022-10-11T14:43:01.866Z,42.29
2022-10-11T14:45:31.696Z,41.99
2022-10-11T14:48:01.252Z,42.05
2022-10-11T14:50:33.872Z,42.00
2022-10-11T14:53:03.835Z,42.12
2022-10-11T14:55:33.494Z,42.00
2022-10-11T14:58:03.164Z,42.24
2022-10-11T15:00:33.474Z,42.52
2022-10-11T15:03:03.166Z,42.79
2022-10-11T15:05:34.346Z,42.90
2022-10-11T15:08:04.200Z,43.30
2022-10-11T15:10:36.205Z,43.69
2022-10-11T15:13:07.191Z,44.12
2022-10-11T15:15:37.888Z,44.61
2022-10-11T15:18:08.443Z,44.99
2022-10-11T15:20:40.322Z,45.33
2022-10-11T15:23:11.018Z,45.92
2022-10-11T15:25:41.930Z,46.26
2022-10-11T15:28:17.370Z,46.56
2022-10-11T15:30:47.068Z,47.03
2022-10-11T15:33:16.765Z,47.40
2022-10-11T15:35:46.574Z,47.67
2022-10-11T15:38:19.381Z,48.04
2022-10-11T15:40:49.872Z,48.40
2022-10-11T15:43:24.499Z,48.69
2022-10-11T15:45:55.155Z,49.08
2022-10-11T15:48:26.831Z,49.58
2022-10-11T15:50:57.041Z,49.99
2022-10-11T15:53:30.272Z,50.37
2022-10-11T15:56:00.980Z,50.68
2022-10-11T15:58:31.824Z,51.08
2022-10-11T16:01:05.665Z,51.40
2022-10-11T16:03:35.764Z,51.75
2022-10-11T16:06:06.020Z,52.08
2022-10-11T16:08:35.804Z,52.39
2022-10-11T16:11:06.048Z,52.64
2022-10-11T16:13:36.105Z,52.83
2022-10-11T16:16:06.917Z,52.92
2022-10-11T16:18:36.854Z,53.02
2022-10-11T16:21:10.218Z,53.30
2022-10-11T16:23:40.486Z,53.52
2022-10-11T16:26:13.633Z,53.81
2022-10-11T16:28:43.519Z,54.11
2022-10-11T16:31:16.997Z,54.43
2022-10-11T16:33:48.876Z,54.69
2022-10-11T16:36:40.463Z,54.96
2022-10-11T16:39:15.244Z,54.96
2022-10-11T16:41:46.219Z,55.23
2022-10-11T16:44:17.737Z,55.48
2022-10-11T16:47:19.134Z,55.67
2022-10-11T16:49:51.229Z,55.97
2022-10-11T16:52:20.947Z,56.13
2022-10-11T16:54:50.781Z,56.34
2022-10-11T16:57:21.256Z,56.59
2022-10-11T16:59:51.262Z,56.82
2022-10-11T17:02:22.550Z,56.97
2022-10-11T17:04:54.091Z,57.04
2022-10-11T17:07:24.323Z,57.32
2022-10-11T17:09:54.119Z,57.53
2022-10-11T17:12:25.142Z,57.66
2022-10-11T17:14:54.896Z,57.86
2022-10-11T17:17:24.671Z,57.78
2022-10-11T17:19:54.295Z,58.04
2022-10-11T17:22:24.318Z,58.02
2022-10-11T17:24:53.947Z,58.11
2022-10-11T17:27:23.530Z,58.21
2022-10-11T17:29:53.254Z,58.26
2022-10-11T17:32:22.870Z,58.28
2022-10-11T17:34:52.502Z,58.30
2022-10-11T17:37:22.301Z,58.31
2022-10-11T17:39:51.988Z,58.36
2022-10-11T17:42:21.826Z,58.33
2022-10-11T17:44:51.518Z,58.49
2022-10-11T17:47:21.118Z,58.41
2022-10-11T17:49:50.753Z,58.58
2022-10-11T17:52:20.349Z,58.51
2022-10-11T17:54:49.988Z,58.58
2022-10-11T17:57:19.632Z,58.50
2022-10-11T17:59:49.255Z,58.56
2022-10-11T18:02:18.856Z,58.69
2022-10-11T18:04:48.610Z,58.41
2022-10-11T18:07:18.211Z,58.48
2022-10-11T18:09:48.181Z,58.52
2022-10-11T18:12:18.137Z,58.47
2022-10-11T18:14:47.749Z,58.33
2022-10-11T18:17:17.405Z,58.47
2022-10-11T18:19:47.010Z,58.33
2022-10-11T18:22:16.671Z,58.14
2022-10-11T18:24:46.299Z,58.06
2022-10-11T18:27:15.984Z,57.96
2022-10-11T18:29:45.610Z,57.90
2022-10-11T18:32:18.191Z,57.93
2022-10-11T18:34:48.160Z,58.06
2022-10-11T18:37:18.257Z,58.02
2022-10-11T18:39:48.163Z,58.15
2022-10-11T18:42:17.994Z,58.10
2022-10-11T18:44:47.757Z,58.30
2022-10-11T18:47:17.723Z,58.40
2022-10-11T18:49:47.391Z,58.42
2022-10-11T18:52:17.308Z,58.57
2022-10-11T18:54:47.210Z,58.63
2022-10-11T18:57:17.418Z,58.55
2022-10-11T18:59:47.236Z,58.68
2022-10-11T19:02:16.946Z,58.69
2022-10-11T19:04:52.612Z,58.71
2022-10-11T19:07:24.852Z,58.72
2022-10-11T19:09:54.538Z,58.76
2022-10-11T19:12:24.232Z,58.91
2022-10-11T19:14:54.915Z,59.02
2022-10-11T19:17:24.859Z,59.13
2022-10-11T19:19:54.588Z,59.13
2022-10-11T19:22:24.440Z,59.23
2022-10-11T19:24:54.975Z,59.34
2022-10-11T19:27:24.650Z,59.44
2022-10-11T19:29:54.616Z,59.52
2022-10-11T19:32:24.529Z,59.53
2022-10-11T19:34:54.091Z,59.63
2022-10-11T19:37:24.046Z,59.73
2022-10-11T19:39:53.888Z,59.78
2022-10-11T19:42:26.863Z,59.90
2022-10-11T19:44:56.663Z,59.99
2022-10-11T19:47:26.496Z,60.11
2022-10-11T19:49:56.231Z,60.17
2022-10-11T19:52:25.938Z,60.14
2022-10-11T19:54:55.790Z,60.21
2022-10-11T19:57:25.736Z,60.13
2022-10-11T19:59:55.481Z,60.25
2022-10-11T20:02:25.132Z,60.20
2022-10-11T20:04:55.136Z,60.16
2022-10-11T20:07:25.322Z,60.16
2022-10-11T20:09:55.301Z,60.24
2022-10-11T20:12:24.960Z,60.19
2022-10-11T20:14:54.867Z,60.13
2022-10-11T20:17:44.553Z,60.11
2022-10-11T20:20:14.400Z,60.11
2022-10-11T20:22:44.110Z,60.09
2022-10-11T20:25:13.951Z,60.12
2022-10-11T20:27:43.870Z,60.11
2022-10-11T20:30:15.069Z,60.15
2022-10-11T20:32:44.776Z,60.09
2022-10-11T20:35:15.176Z,60.11
2022-10-11T20:37:45.241Z,60.18
2022-10-11T20:40:15.567Z,60.03
2022-10-11T20:42:45.413Z,60.06
2022-10-11T20:45:15.333Z,60.09
2022-10-11T20:47:45.081Z,60.07
2022-10-11T20:50:15.453Z,60.00
2022-10-11T20:52:47.076Z,59.88
2022-10-11T20:55:16.624Z,59.78
2022-10-11T20:57:46.301Z,59.93
2022-10-11T21:00:16.950Z,59.83
2022-10-11T21:02:46.634Z,59.85
2022-10-11T21:05:16.246Z,59.87
2022-10-11T21:07:45.920Z,59.88
2022-10-11T21:10:15.610Z,60.06
2022-10-11T21:12:45.214Z,60.13
2022-10-11T21:15:14.782Z,60.29
2022-10-11T21:17:44.402Z,60.33
2022-10-11T21:20:14.076Z,60.46
2022-10-11T21:22:43.835Z,60.44
2022-10-11T21:25:13.505Z,60.40
2022-10-11T21:27:43.188Z,60.48
2022-10-11T21:30:13.035Z,60.51
2022-10-11T21:32:42.611Z,60.61
2022-10-11T21:35:12.305Z,60.80
2022-10-11T21:37:41.914Z,60.93
2022-10-11T21:40:11.859Z,61.10
2022-10-11T21:42:41.513Z,61.38
2022-10-11T21:45:11.077Z,61.77
2022-10-11T21:47:40.968Z,61.89
2022-10-11T21:50:10.899Z,62.04
2022-10-11T21:52:40.494Z,62.18
2022-10-11T21:55:10.870Z,62.31
2022-10-11T21:57:42.422Z,62.43
2022-10-11T22:00:13.335Z,62.61
2022-10-11T22:02:42.907Z,62.68
2022-10-11T22:05:12.550Z,62.77
2022-10-11T22:07:42.294Z,62.83
2022-10-11T22:10:11.855Z,62.70
2022-10-11T22:12:41.749Z,62.81
2022-10-11T22:15:11.874Z,62.93
2022-10-11T22:17:41.581Z,62.88
2022-10-11T22:20:11.789Z,63.12
2022-10-11T22:22:41.519Z,63.19
2022-10-11T22:25:11.533Z,63.19
2022-10-11T22:27:41.151Z,63.33
2022-10-11T22:30:11.795Z,63.43
2022-10-11T22:32:41.440Z,63.47
2022-10-11T22:35:11.057Z,63.46
2022-10-11T22:37:40.746Z,63.62
2022-10-11T22:40:11.240Z,63.83
2022-10-11T22:42:40.931Z,63.98
2022-10-11T22:45:11.256Z,64.21
2022-10-11T22:47:40.800Z,64.35
2022-10-11T22:50:10.860Z,64.66
2022-10-11T22:52:40.619Z,65.01
2022-10-11T22:55:10.775Z,64.99
2022-10-11T22:57:40.326Z,65.11
2022-10-11T23:00:11.086Z,65.33
2022-10-11T23:02:40.642Z,65.80
2022-10-11T23:05:12.138Z,66.18
2022-10-11T23:07:41.736Z,66.59
2022-10-11T23:10:11.673Z,66.95
2022-10-11T23:12:41.279Z,67.35
2022-10-11T23:15:11.954Z,67.60
2022-10-11T23:17:41.495Z,67.83
2022-10-11T23:20:11.993Z,68.01
2022-10-11T23:22:41.700Z,68.28
2022-10-11T23:25:11.748Z,68.72
2022-10-11T23:27:41.281Z,68.76
2022-10-11T23:30:12.566Z,68.91
2022-10-11T23:32:42.129Z,69.06
2022-10-11T23:35:11.914Z,69.09
2022-10-11T23:37:41.609Z,68.96
2022-10-11T23:40:11.834Z,69.10
2022-10-11T23:42:41.542Z,69.28
2022-10-11T23:45:12.327Z,69.23
2022-10-11T23:47:41.972Z,69.15
2022-10-11T23:50:11.680Z,69.23
2022-10-11T23:52:41.348Z,69.20
2022-10-11T23:55:11.262Z,69.32
2022-10-11T23:57:41.116Z,69.44
